HKE768 VHHH-WMKP
Flight info
| Callsign | HKE768 |
|---|---|
| Flight time | N/A |
| Altitude | 36000 |
| Route | PECAN V12 EPDOS L642 EPKAL/K0835F360 L642 CN M765 BITOD/N0444F360 M765 VKB W546 BETNU BETNU1F |
| Aircraft | A320/M-SDE3FGHIRWY/LB1 |
Departure
| Time | 2026-04-30 09:59 |
|---|---|
| Airport | Hong Kong International Airport (VHHH) |
Arrival
| Time | N/A |
|---|---|
| Airport | Penang International Airport (WMKP) |
| Time | Latitude | Longitude | Altitude | Speed | Heading |
|---|---|---|---|---|---|
| 2026-04-30 09:38 | 22.30807 | 113.91754 | 31 ft | 0 kts | 71° |
| 2026-04-30 09:47 | 22.30804 | 113.91746 | 32 ft | 4 kts | 71° |
| 2026-04-30 09:47 | 22.30796 | 113.91719 | 30 ft | 4 kts | 71° |
| 2026-04-30 09:47 | 22.30787 | 113.91691 | 31 ft | 4 kts | 74° |
| 2026-04-30 09:47 | 22.30785 | 113.91665 | 32 ft | 4 kts | 118° |
| 2026-04-30 09:48 | 22.30803 | 113.91647 | 29 ft | 4 kts | 159° |
| 2026-04-30 09:48 | 22.30823 | 113.91639 | 32 ft | 4 kts | 161° |
| 2026-04-30 09:48 | 22.30848 | 113.91630 | 31 ft | 4 kts | 161° |
| 2026-04-30 09:48 | 22.30874 | 113.91620 | 32 ft | 4 kts | 161° |
| 2026-04-30 09:49 | 22.30900 | 113.91611 | 31 ft | 4 kts | 161° |
| 2026-04-30 09:49 | 22.30915 | 113.91605 | 32 ft | 0 kts | 161° |
| 2026-04-30 09:51 | 22.30900 | 113.91610 | 31 ft | 4 kts | 161° |
| 2026-04-30 09:51 | 22.30866 | 113.91623 | 30 ft | 7 kts | 161° |
| 2026-04-30 09:51 | 22.30806 | 113.91646 | 30 ft | 11 kts | 161° |
| 2026-04-30 09:51 | 22.30725 | 113.91676 | 32 ft | 13 kts | 161° |
| 2026-04-30 09:52 | 22.30632 | 113.91710 | 32 ft | 15 kts | 161° |
| 2026-04-30 09:52 | 22.30529 | 113.91725 | 32 ft | 16 kts | 212° |
| 2026-04-30 09:52 | 22.30482 | 113.91612 | 32 ft | 18 kts | 251° |
| 2026-04-30 09:52 | 22.30437 | 113.91472 | 32 ft | 22 kts | 251° |
| 2026-04-30 09:53 | 22.30380 | 113.91293 | 32 ft | 28 kts | 251° |
| 2026-04-30 09:53 | 22.30311 | 113.91082 | 32 ft | 30 kts | 251° |
| 2026-04-30 09:53 | 22.30242 | 113.90866 | 32 ft | 31 kts | 250° |
| 2026-04-30 09:53 | 22.30174 | 113.90654 | 30 ft | 30 kts | 251° |
| 2026-04-30 09:54 | 22.30107 | 113.90445 | 32 ft | 30 kts | 251° |
| 2026-04-30 09:54 | 22.30045 | 113.90255 | 32 ft | 25 kts | 251° |
| 2026-04-30 09:54 | 22.29986 | 113.90071 | 32 ft | 27 kts | 251° |
| 2026-04-30 09:54 | 22.29926 | 113.89886 | 32 ft | 19 kts | 251° |
| 2026-04-30 09:55 | 22.29857 | 113.89844 | 32 ft | 13 kts | 165° |
| 2026-04-30 09:55 | 22.29783 | 113.89871 | 32 ft | 7 kts | 161° |
| 2026-04-30 09:55 | 22.29778 | 113.89873 | 32 ft | 0 kts | 161° |
| 2026-04-30 09:56 | 22.29774 | 113.89874 | 32 ft | 2 kts | 161° |
| 2026-04-30 09:56 | 22.29755 | 113.89881 | 32 ft | 4 kts | 161° |
| 2026-04-30 09:56 | 22.29701 | 113.89902 | 30 ft | 11 kts | 155° |
| 2026-04-30 09:57 | 22.29676 | 113.89974 | 30 ft | 12 kts | 76° |
| 2026-04-30 09:57 | 22.29684 | 113.90001 | 30 ft | 0 kts | 71° |
| 2026-04-30 09:57 | 22.29685 | 113.90004 | 30 ft | 2 kts | 71° |
| 2026-04-30 09:58 | 22.29737 | 113.90164 | 30 ft | 56 kts | 71° |
| 2026-04-30 09:58 | 22.29939 | 113.90789 | 31 ft | 117 kts | 71° |
| 2026-04-30 09:58 | 22.30261 | 113.91787 | 33 ft | 162 kts | 71° |
| 2026-04-30 09:58 | 22.30658 | 113.93046 | 269 ft | 181 kts | 68° |
| 2026-04-30 09:59 | 22.31472 | 113.95578 | 1687 ft | 176 kts | 69° |
| 2026-04-30 09:59 | 22.32319 | 113.98146 | 2572 ft | 199 kts | 68° |
| 2026-04-30 10:00 | 22.33293 | 114.01159 | 3711 ft | 216 kts | 69° |
| 2026-04-30 10:00 | 22.33756 | 114.02716 | 4361 ft | 222 kts | 77° |
| 2026-04-30 10:01 | 22.33253 | 114.06068 | 5605 ft | 239 kts | 122° |
| 2026-04-30 10:01 | 22.32164 | 114.07429 | 6238 ft | 243 kts | 144° |
| 2026-04-30 10:01 | 22.30650 | 114.08369 | 6607 ft | 258 kts | 164° |
| 2026-04-30 10:02 | 22.27155 | 114.08693 | 7652 ft | 276 kts | 184° |
| 2026-04-30 10:02 | 22.25201 | 114.08665 | 8221 ft | 285 kts | 184° |
| 2026-04-30 10:02 | 22.23205 | 114.08650 | 8937 ft | 288 kts | 184° |
| 2026-04-30 10:02 | 22.21188 | 114.08640 | 9666 ft | 291 kts | 184° |
| 2026-04-30 10:03 | 22.19169 | 114.08731 | 10233 ft | 302 kts | 175° |
| 2026-04-30 10:03 | 22.17075 | 114.09460 | 10353 ft | 332 kts | 155° |
| 2026-04-30 10:03 | 22.15175 | 114.11068 | 10594 ft | 355 kts | 133° |
| 2026-04-30 10:03 | 22.13834 | 114.13351 | 11079 ft | 365 kts | 118° |
| 2026-04-30 10:04 | 22.12520 | 114.15658 | 11590 ft | 368 kts | 132° |
| 2026-04-30 10:04 | 22.10562 | 114.17482 | 11721 ft | 379 kts | 154° |
| 2026-04-30 10:04 | 22.08079 | 114.18479 | 11850 ft | 386 kts | 174° |
| 2026-04-30 10:04 | 22.05387 | 114.18503 | 12028 ft | 391 kts | 193° |
| 2026-04-30 10:05 | 22.02685 | 114.17905 | 12192 ft | 403 kts | 195° |
| 2026-04-30 10:05 | 21.99901 | 114.17245 | 12446 ft | 414 kts | 196° |
| 2026-04-30 10:05 | 21.97076 | 114.16565 | 12915 ft | 418 kts | 196° |
| 2026-04-30 10:05 | 21.94222 | 114.15874 | 13399 ft | 421 kts | 196° |
| 2026-04-30 10:06 | 21.91352 | 114.15184 | 13863 ft | 425 kts | 196° |
| 2026-04-30 10:06 | 21.88460 | 114.14495 | 14272 ft | 428 kts | 196° |
| 2026-04-30 10:06 | 21.85544 | 114.13803 | 14664 ft | 430 kts | 196° |
| 2026-04-30 10:06 | 21.82613 | 114.13112 | 15056 ft | 433 kts | 196° |
| 2026-04-30 10:07 | 21.79664 | 114.12418 | 15453 ft | 435 kts | 196° |
| 2026-04-30 10:07 | 21.76700 | 114.11719 | 15846 ft | 437 kts | 196° |
| 2026-04-30 10:07 | 21.73728 | 114.11017 | 16225 ft | 439 kts | 196° |
| 2026-04-30 10:07 | 21.70793 | 114.10323 | 16598 ft | 440 kts | 196° |
| 2026-04-30 10:08 | 21.67792 | 114.09613 | 16963 ft | 442 kts | 196° |
| 2026-04-30 10:08 | 21.64788 | 114.08901 | 17322 ft | 444 kts | 196° |
| 2026-04-30 10:08 | 21.61766 | 114.08164 | 17679 ft | 446 kts | 197° |
| 2026-04-30 10:08 | 21.58737 | 114.07389 | 18031 ft | 448 kts | 197° |
| 2026-04-30 10:09 | 21.55703 | 114.06591 | 18379 ft | 449 kts | 197° |
| 2026-04-30 10:09 | 21.52658 | 114.05784 | 18682 ft | 450 kts | 197° |
| 2026-04-30 10:09 | 21.49612 | 114.04979 | 18965 ft | 452 kts | 197° |
| 2026-04-30 10:09 | 21.46548 | 114.04174 | 19234 ft | 454 kts | 197° |
| 2026-04-30 10:10 | 21.43440 | 114.03477 | 19494 ft | 459 kts | 190° |
| 2026-04-30 10:10 | 21.40237 | 114.03229 | 19751 ft | 463 kts | 187° |
| 2026-04-30 10:10 | 21.37015 | 114.03018 | 20017 ft | 465 kts | 187° |
| 2026-04-30 10:10 | 21.34878 | 114.02881 | 20213 ft | 464 kts | 187° |
| 2026-04-30 10:11 | 21.30593 | 114.02605 | 20902 ft | 459 kts | 187° |
| 2026-04-30 10:11 | 21.28479 | 114.02466 | 21105 ft | 460 kts | 187° |
| 2026-04-30 10:11 | 21.25276 | 114.02251 | 21372 ft | 461 kts | 187° |
| 2026-04-30 10:11 | 21.22067 | 114.02032 | 21630 ft | 463 kts | 187° |
| 2026-04-30 10:12 | 21.18846 | 114.01811 | 21840 ft | 466 kts | 187° |
| 2026-04-30 10:12 | 21.15600 | 114.01591 | 21971 ft | 470 kts | 187° |
| 2026-04-30 10:12 | 21.12324 | 114.01373 | 22143 ft | 472 kts | 187° |
| 2026-04-30 10:12 | 21.09042 | 114.01157 | 22436 ft | 470 kts | 187° |
| 2026-04-30 10:13 | 21.05832 | 114.00951 | 23470 ft | 452 kts | 187° |
| 2026-04-30 10:13 | 21.02758 | 114.00756 | 24493 ft | 434 kts | 187° |
| 2026-04-30 10:13 | 20.99775 | 114.00562 | 25172 ft | 428 kts | 187° |
| 2026-04-30 10:13 | 20.96782 | 114.00358 | 25300 ft | 435 kts | 187° |
| 2026-04-30 10:14 | 20.93743 | 114.00089 | 25417 ft | 439 kts | 192° |
| 2026-04-30 10:14 | 20.90741 | 113.99431 | 25535 ft | 443 kts | 195° |
| 2026-04-30 10:14 | 20.84644 | 113.98001 | 25838 ft | 452 kts | 195° |
| 2026-04-30 10:15 | 20.81565 | 113.97288 | 26075 ft | 454 kts | 195° |
| 2026-04-30 10:15 | 20.78475 | 113.96573 | 26313 ft | 455 kts | 195° |
| 2026-04-30 10:15 | 20.75376 | 113.95852 | 26561 ft | 457 kts | 195° |
| 2026-04-30 10:15 | 20.72266 | 113.95126 | 26806 ft | 458 kts | 195° |
| 2026-04-30 10:16 | 20.69150 | 113.94397 | 27031 ft | 460 kts | 195° |
| 2026-04-30 10:16 | 20.66013 | 113.93669 | 27272 ft | 461 kts | 195° |
| 2026-04-30 10:16 | 20.62875 | 113.92942 | 27514 ft | 462 kts | 195° |
| 2026-04-30 10:17 | 20.56571 | 113.91481 | 27960 ft | 465 kts | 195° |
| 2026-04-30 10:17 | 20.50276 | 113.90023 | 28508 ft | 465 kts | 195° |
| 2026-04-30 10:17 | 20.47119 | 113.89292 | 28837 ft | 464 kts | 195° |
| 2026-04-30 10:18 | 20.43958 | 113.88560 | 29158 ft | 463 kts | 195° |
| 2026-04-30 10:18 | 20.40814 | 113.87830 | 29488 ft | 462 kts | 195° |
| 2026-04-30 10:18 | 20.37674 | 113.87102 | 29827 ft | 462 kts | 195° |
| 2026-04-30 10:19 | 20.31410 | 113.85650 | 30440 ft | 460 kts | 195° |
| 2026-04-30 10:19 | 20.28286 | 113.84926 | 30738 ft | 459 kts | 195° |
| 2026-04-30 10:19 | 20.25169 | 113.84209 | 31053 ft | 457 kts | 195° |
| 2026-04-30 10:19 | 20.22064 | 113.83494 | 31369 ft | 456 kts | 195° |
| 2026-04-30 10:20 | 20.18972 | 113.82779 | 31693 ft | 455 kts | 195° |
| 2026-04-30 10:20 | 20.12804 | 113.81349 | 32365 ft | 452 kts | 195° |
| 2026-04-30 10:20 | 20.09733 | 113.80644 | 32699 ft | 451 kts | 195° |
| 2026-04-30 10:21 | 20.06669 | 113.79939 | 33001 ft | 451 kts | 195° |
| 2026-04-30 10:21 | 20.03606 | 113.79229 | 33310 ft | 451 kts | 195° |
| 2026-04-30 10:21 | 20.00538 | 113.78522 | 33633 ft | 450 kts | 195° |
| 2026-04-30 10:21 | 19.97481 | 113.77819 | 33966 ft | 449 kts | 195° |
| 2026-04-30 10:22 | 19.94431 | 113.77114 | 34269 ft | 448 kts | 195° |
| 2026-04-30 10:22 | 19.91384 | 113.76410 | 34570 ft | 447 kts | 195° |
| 2026-04-30 10:22 | 19.88343 | 113.75707 | 34867 ft | 447 kts | 196° |
| 2026-04-30 10:22 | 19.85298 | 113.75008 | 35149 ft | 446 kts | 196° |
| 2026-04-30 10:23 | 19.82273 | 113.74315 | 35454 ft | 445 kts | 196° |
| 2026-04-30 10:23 | 19.79249 | 113.73620 | 35732 ft | 443 kts | 196° |
| 2026-04-30 10:23 | 19.76236 | 113.72928 | 35993 ft | 443 kts | 196° |
| 2026-04-30 10:23 | 19.73223 | 113.72234 | 36242 ft | 443 kts | 196° |
| 2026-04-30 10:24 | 19.70217 | 113.71545 | 36482 ft | 442 kts | 196° |
| 2026-04-30 10:24 | 19.67249 | 113.70866 | 36723 ft | 442 kts | 196° |
| 2026-04-30 10:24 | 19.64205 | 113.70170 | 36969 ft | 441 kts | 197° |
| 2026-04-30 10:24 | 19.61207 | 113.69486 | 37180 ft | 441 kts | 197° |
| 2026-04-30 10:25 | 19.58207 | 113.68803 | 37404 ft | 441 kts | 197° |
| 2026-04-30 10:25 | 19.55211 | 113.68119 | 37623 ft | 440 kts | 197° |
| 2026-04-30 10:25 | 19.52217 | 113.67431 | 37835 ft | 440 kts | 197° |
| 2026-04-30 10:25 | 19.49229 | 113.66743 | 37965 ft | 440 kts | 197° |
| 2026-04-30 10:26 | 19.43232 | 113.65365 | 37999 ft | 441 kts | 197° |
| 2026-04-30 10:26 | 19.37239 | 113.63995 | 37997 ft | 441 kts | 197° |
| 2026-04-30 10:27 | 19.31238 | 113.62622 | 37994 ft | 441 kts | 197° |
| 2026-04-30 10:27 | 19.25247 | 113.61253 | 37994 ft | 441 kts | 197° |
| 2026-04-30 10:28 | 19.19292 | 113.59898 | 37982 ft | 441 kts | 197° |
| 2026-04-30 10:28 | 19.13284 | 113.58525 | 37992 ft | 442 kts | 197° |
| 2026-04-30 10:29 | 19.07260 | 113.57148 | 38006 ft | 442 kts | 196° |
| 2026-04-30 10:29 | 19.01241 | 113.55781 | 38006 ft | 443 kts | 196° |
| 2026-04-30 10:30 | 18.95160 | 113.54635 | 38018 ft | 445 kts | 192° |
| 2026-04-30 10:30 | 18.89045 | 113.53828 | 38009 ft | 446 kts | 191° |
| 2026-04-30 10:31 | 18.82886 | 113.53050 | 38006 ft | 446 kts | 191° |
| 2026-04-30 10:31 | 18.76742 | 113.52203 | 38016 ft | 445 kts | 192° |